createdAt,value
2022-10-15T00:00:33.238Z,5.90
2022-10-15T00:03:19.549Z,5.90
2022-10-15T00:06:07.270Z,5.50
2022-10-15T00:08:55.274Z,5.68
2022-10-15T00:11:41.778Z,5.53
2022-10-15T00:14:28.229Z,5.38
2022-10-15T00:17:14.461Z,5.30
2022-10-15T00:20:01.561Z,6.05
2022-10-15T00:22:47.814Z,5.47
2022-10-15T00:25:36.105Z,5.05
2022-10-15T00:28:22.596Z,5.65
2022-10-15T00:31:11.429Z,4.93
2022-10-15T00:34:00.060Z,5.45
2022-10-15T00:36:46.418Z,5.90
2022-10-15T00:39:33.033Z,5.28
2022-10-15T00:42:20.777Z,5.82
2022-10-15T00:45:12.087Z,5.65
2022-10-15T00:47:58.517Z,5.53
2022-10-15T00:50:45.026Z,5.63
2022-10-15T00:53:31.994Z,6.40
2022-10-15T00:56:20.897Z,6.07
2022-10-15T00:59:09.584Z,5.93
2022-10-15T01:01:56.370Z,5.57
2022-10-15T01:04:43.586Z,5.88
2022-10-15T01:07:30.058Z,6.35
2022-10-15T01:10:17.573Z,6.15
2022-10-15T01:13:12.279Z,5.75
2022-10-15T01:16:07.828Z,6.03
2022-10-15T01:18:58.948Z,5.75
2022-10-15T01:21:48.368Z,5.40
2022-10-15T01:24:53.099Z,4.72
2022-10-15T01:27:42.743Z,4.28
2022-10-15T01:30:34.739Z,4.05
2022-10-15T01:33:28.393Z,3.95
2022-10-15T01:36:19.957Z,3.55
2022-10-15T01:39:11.627Z,3.55
2022-10-15T01:42:02.640Z,3.33
2022-10-15T01:44:54.367Z,3.35
2022-10-15T01:47:47.806Z,3.63
2022-10-15T01:50:37.721Z,3.35
2022-10-15T01:53:27.570Z,3.67
2022-10-15T01:56:18.741Z,3.35
2022-10-15T01:59:07.346Z,3.22
2022-10-15T02:01:56.182Z,3.47
2022-10-15T02:04:45.585Z,4.13
2022-10-15T02:07:39.685Z,4.10
2022-10-15T02:10:31.361Z,3.58
2022-10-15T02:13:26.329Z,4.00
2022-10-15T02:16:19.940Z,3.55
2022-10-15T02:19:13.350Z,3.60
2022-10-15T02:22:07.265Z,4.10
2022-10-15T02:24:57.601Z,4.10
2022-10-15T02:27:46.280Z,3.60
2022-10-15T02:30:34.019Z,3.60
2022-10-15T02:33:21.744Z,3.60
2022-10-15T02:36:09.322Z,3.72
2022-10-15T02:38:58.754Z,3.75
2022-10-15T02:41:45.859Z,3.45
2022-10-15T02:44:32.325Z,3.53
2022-10-15T02:47:18.825Z,3.53
2022-10-15T02:50:05.530Z,3.13
2022-10-15T02:52:52.050Z,3.58
2022-10-15T02:55:39.658Z,3.20
2022-10-15T02:58:26.878Z,3.45
2022-10-15T03:01:13.456Z,3.88
2022-10-15T03:04:00.257Z,3.30
2022-10-15T03:06:46.477Z,3.35
2022-10-15T03:09:33.094Z,3.47
2022-10-15T03:12:23.195Z,3.83
2022-10-15T03:15:10.202Z,3.75
2022-10-15T03:17:56.503Z,3.55
2022-10-15T03:20:43.105Z,4.10
2022-10-15T03:23:30.084Z,3.75
2022-10-15T03:26:16.487Z,3.55
2022-10-15T03:29:04.425Z,4.35
2022-10-15T03:31:50.941Z,3.50
2022-10-15T03:34:37.380Z,3.55
2022-10-15T03:37:24.190Z,3.70
2022-10-15T03:40:14.458Z,3.38
2022-10-15T03:43:01.101Z,3.15
2022-10-15T03:45:48.646Z,3.83
2022-10-15T03:48:35.282Z,3.97
2022-10-15T03:51:24.494Z,3.72
2022-10-15T03:54:12.992Z,3.75
2022-10-15T03:56:59.992Z,3.92
2022-10-15T03:59:46.342Z,3.97
2022-10-15T04:02:34.090Z,3.80
2022-10-15T04:05:20.370Z,3.58
2022-10-15T04:08:07.384Z,3.28
2022-10-15T04:10:54.191Z,3.63
2022-10-15T04:13:40.786Z,3.80
2022-10-15T04:16:27.409Z,3.30
2022-10-15T04:19:15.022Z,3.00
2022-10-15T04:22:01.638Z,3.20
2022-10-15T04:24:48.198Z,3.42
2022-10-15T04:27:34.650Z,3.42
2022-10-15T04:30:20.785Z,3.03
2022-10-15T04:33:07.453Z,3.20
2022-10-15T04:36:01.389Z,3.33
2022-10-15T04:38:47.878Z,3.67
2022-10-15T04:41:34.279Z,3.50
2022-10-15T04:44:20.710Z,3.10
2022-10-15T04:47:07.194Z,2.90
2022-10-15T04:49:53.558Z,3.13
2022-10-15T04:52:41.326Z,3.15
2022-10-15T04:55:27.685Z,3.30
2022-10-15T04:58:14.408Z,3.22
2022-10-15T05:01:02.287Z,3.15
2022-10-15T05:03:49.871Z,2.90
2022-10-15T05:06:36.358Z,3.35
2022-10-15T05:09:24.207Z,3.40
2022-10-15T05:12:10.756Z,3.53
2022-10-15T05:14:56.930Z,3.30
2022-10-15T05:17:43.511Z,3.40
2022-10-15T05:20:29.726Z,3.30
2022-10-15T05:23:16.342Z,3.28
2022-10-15T05:26:06.050Z,3.38
2022-10-15T05:28:53.125Z,3.60
2022-10-15T05:31:39.400Z,4.28
2022-10-15T05:34:28.547Z,3.28
2022-10-15T05:37:14.751Z,3.60
2022-10-15T05:40:01.236Z,3.70
2022-10-15T05:45:43.965Z,3.78
2022-10-15T05:48:30.169Z,3.50
2022-10-15T05:51:17.176Z,3.33
2022-10-15T05:54:03.705Z,4.30
2022-10-15T05:56:50.187Z,4.25
2022-10-15T05:59:37.902Z,3.38
2022-10-15T06:02:24.958Z,3.40
2022-10-15T06:05:11.353Z,4.13
2022-10-15T06:07:58.010Z,3.10
2022-10-15T06:10:45.159Z,3.40
2022-10-15T06:13:31.564Z,3.65
2022-10-15T06:16:22.818Z,3.45
2022-10-15T06:19:11.002Z,2.90
2022-10-15T06:21:57.236Z,3.10
2022-10-15T06:24:43.728Z,3.40
2022-10-15T06:27:30.683Z,2.72
2022-10-15T06:30:17.069Z,2.85
2022-10-15T06:33:04.880Z,3.03
2022-10-15T06:35:51.565Z,2.95
2022-10-15T06:38:39.318Z,3.13
2022-10-15T06:41:25.825Z,2.90
2022-10-15T06:44:12.159Z,2.83
2022-10-15T06:46:59.312Z,2.85
2022-10-15T06:49:47.156Z,2.92
2022-10-15T06:52:33.830Z,2.80
2022-10-15T06:55:20.123Z,2.90
2022-10-15T06:58:06.527Z,5.13
2022-10-15T07:00:53.131Z,4.10
2022-10-15T07:03:39.866Z,3.75
2022-10-15T07:06:27.805Z,2.90
2022-10-15T07:09:14.334Z,3.67
2022-10-15T07:12:00.686Z,4.10
2022-10-15T07:14:47.334Z,3.05
2022-10-15T07:17:35.153Z,3.15
2022-10-15T07:20:23.564Z,3.40
2022-10-15T07:23:12.237Z,3.20
2022-10-15T07:25:59.054Z,3.38
2022-10-15T07:28:45.532Z,2.97
2022-10-15T07:31:32.683Z,2.85
2022-10-15T07:34:18.946Z,2.70
2022-10-15T07:37:05.376Z,2.83
2022-10-15T07:39:53.034Z,3.00
2022-10-15T07:42:40.916Z,3.00
2022-10-15T07:45:27.820Z,2.90
2022-10-15T07:48:14.103Z,3.03
2022-10-15T07:51:02.501Z,2.90
2022-10-15T07:53:48.920Z,3.05
2022-10-15T07:56:36.423Z,4.85
2022-10-15T07:59:23.081Z,3.85
2022-10-15T08:02:15.858Z,3.75
2022-10-15T08:05:02.169Z,3.05
2022-10-15T08:07:48.297Z,3.28
2022-10-15T08:10:36.406Z,3.22
2022-10-15T08:13:24.766Z,3.42
2022-10-15T08:16:13.355Z,4.05
2022-10-15T08:19:00.790Z,3.70
2022-10-15T08:21:47.688Z,3.38
2022-10-15T08:24:34.073Z,3.15
2022-10-15T08:27:20.304Z,2.95
2022-10-15T08:30:09.402Z,4.03
2022-10-15T08:32:55.825Z,4.90
2022-10-15T08:35:43.490Z,4.57
2022-10-15T08:38:31.596Z,3.83
2022-10-15T08:41:26.774Z,3.33
2022-10-15T08:44:21.600Z,2.78
2022-10-15T08:47:15.280Z,3.22
2022-10-15T08:50:06.574Z,3.28
2022-10-15T08:52:54.055Z,4.63
2022-10-15T08:55:44.348Z,5.03
2022-10-15T08:58:43.798Z,3.30
2022-10-15T09:01:34.825Z,3.00
2022-10-15T09:04:29.773Z,3.38
2022-10-15T09:07:25.539Z,3.05
2022-10-15T09:10:17.584Z,2.92
2022-10-15T09:13:12.547Z,3.55
2022-10-15T09:16:06.225Z,2.97
2022-10-15T09:18:54.494Z,3.20
2022-10-15T09:21:43.563Z,2.90
2022-10-15T09:24:35.491Z,2.90
2022-10-15T09:27:31.542Z,3.50
2022-10-15T09:30:29.678Z,2.70
2022-10-15T09:33:24.453Z,3.13
2022-10-15T09:36:20.983Z,2.35
2022-10-15T09:39:36.295Z,2.70
2022-10-15T09:42:30.693Z,2.70
2022-10-15T09:45:18.113Z,3.45
2022-10-15T09:48:15.859Z,3.88
2022-10-15T09:51:07.162Z,2.90
2022-10-15T09:54:02.482Z,2.97
2022-10-15T09:56:54.966Z,2.40
2022-10-15T09:59:53.774Z,2.10
2022-10-15T10:02:40.512Z,2.45
2022-10-15T10:05:30.959Z,1.95
2022-10-15T10:08:21.774Z,2.00
2022-10-15T10:11:11.216Z,1.90
2022-10-15T10:14:01.445Z,1.80
2022-10-15T10:17:07.186Z,1.42
2022-10-15T10:20:16.504Z,1.83
2022-10-15T10:23:09.818Z,1.65
2022-10-15T10:25:57.517Z,1.58
2022-10-15T10:28:49.855Z,1.40
2022-10-15T10:31:42.558Z,1.98
2022-10-15T10:34:31.411Z,1.50
2022-10-15T10:37:17.998Z,1.75
2022-10-15T10:40:05.657Z,1.70
2022-10-15T10:43:11.389Z,1.40
2022-10-15T10:45:59.528Z,1.98
2022-10-15T10:48:48.808Z,1.58
2022-10-15T10:51:35.055Z,1.90
2022-10-15T10:54:21.486Z,1.60
2022-10-15T10:57:12.842Z,1.40
2022-10-15T10:59:59.063Z,1.45
2022-10-15T11:02:45.670Z,1.35
2022-10-15T11:05:39.346Z,0.98
2022-10-15T11:08:34.469Z,1.10
2022-10-15T11:11:26.100Z,1.40
2022-10-15T11:14:23.836Z,3.70
2022-10-15T11:17:20.489Z,9.85
2022-10-15T11:20:48.305Z,4.22
2022-10-15T11:23:38.776Z,1.30
2022-10-15T11:26:52.061Z,1.30
2022-10-15T11:29:54.662Z,1.35
2022-10-15T11:33:06.740Z,1.20
2022-10-15T11:36:01.918Z,1.40
2022-10-15T11:38:56.693Z,1.02
2022-10-15T11:41:52.733Z,1.58
2022-10-15T11:45:00.702Z,1.40
2022-10-15T11:47:54.691Z,1.40
2022-10-15T11:50:45.814Z,1.20
2022-10-15T11:54:05.578Z,1.50
2022-10-15T11:56:54.589Z,1.30
2022-10-15T11:59:47.407Z,1.33
2022-10-15T12:02:37.222Z,1.88
2022-10-15T12:05:32.685Z,1.55
2022-10-15T12:08:20.773Z,1.92
2022-10-15T12:11:17.503Z,1.60
2022-10-15T12:14:13.414Z,1.58
2022-10-15T12:20:08.218Z,1.63
2022-10-15T12:22:57.490Z,1.35
2022-10-15T12:25:46.558Z,1.60
2022-10-15T12:28:34.490Z,1.50
2022-10-15T12:31:21.954Z,1.58
2022-10-15T12:34:27.544Z,1.30
2022-10-15T12:37:18.778Z,1.40
2022-10-15T12:40:23.813Z,1.60
2022-10-15T12:43:16.670Z,1.80
2022-10-15T12:46:07.191Z,2.15
2022-10-15T12:48:58.032Z,1.88
2022-10-15T12:51:44.314Z,2.45
2022-10-15T12:54:37.313Z,1.20
2022-10-15T12:57:52.843Z,1.25
2022-10-15T13:00:43.925Z,1.25
2022-10-15T13:03:39.303Z,1.30
2022-10-15T13:06:35.382Z,1.13
2022-10-15T13:09:31.310Z,0.90
2022-10-15T13:12:24.229Z,0.70
2022-10-15T13:15:17.131Z,1.20
2022-10-15T13:18:09.504Z,1.23
2022-10-15T13:20:58.162Z,1.20
2022-10-15T13:23:47.270Z,1.48
2022-10-15T13:26:33.833Z,4.25
2022-10-15T13:29:22.790Z,12.20
2022-10-15T13:32:15.612Z,1.48
2022-10-15T13:35:04.695Z,1.00
2022-10-15T13:37:53.057Z,1.00
2022-10-15T13:40:40.005Z,0.82
2022-10-15T13:43:28.881Z,1.17
2022-10-15T13:46:16.979Z,0.98
2022-10-15T13:49:05.481Z,0.80
2022-10-15T13:51:53.975Z,1.50
2022-10-15T13:54:45.354Z,0.85
2022-10-15T13:57:31.802Z,1.85
2022-10-15T14:00:24.190Z,1.40
2022-10-15T14:03:16.880Z,1.00
2022-10-15T14:06:11.226Z,1.23
2022-10-15T14:09:00.093Z,1.08
2022-10-15T14:11:47.830Z,1.13
2022-10-15T14:14:36.942Z,1.13
2022-10-15T14:17:25.294Z,1.15
2022-10-15T14:20:33.434Z,0.82
2022-10-15T14:23:25.624Z,1.00
2022-10-15T14:26:12.993Z,1.38
2022-10-15T14:29:01.236Z,2.08
2022-10-15T14:31:49.726Z,2.30
2022-10-15T14:34:41.673Z,1.40
2022-10-15T14:37:43.639Z,1.30
2022-10-15T14:40:30.020Z,1.00
2022-10-15T14:43:19.038Z,1.50
2022-10-15T14:46:08.688Z,0.98
2022-10-15T14:48:55.362Z,1.35
2022-10-15T14:51:41.828Z,1.33
2022-10-15T14:54:36.012Z,1.40
2022-10-15T14:57:25.795Z,1.75
2022-10-15T15:00:18.102Z,1.30
2022-10-15T15:03:07.566Z,1.50
2022-10-15T15:05:56.048Z,1.60
2022-10-15T15:08:42.754Z,1.63
2022-10-15T15:11:29.060Z,1.45
2022-10-15T15:14:24.797Z,2.28
2022-10-15T15:17:16.743Z,1.50
2022-10-15T15:22:56.853Z,1.95
2022-10-15T15:25:43.054Z,1.50
2022-10-15T15:28:30.272Z,2.00
2022-10-15T15:31:18.637Z,1.63
2022-10-15T15:34:05.215Z,1.85
2022-10-15T15:36:52.793Z,1.88
2022-10-15T15:39:39.289Z,1.98
2022-10-15T15:42:26.473Z,1.60
2022-10-15T15:45:19.413Z,1.58
2022-10-15T15:48:06.557Z,1.80
2022-10-15T15:50:53.212Z,1.85
2022-10-15T15:53:40.983Z,1.50
2022-10-15T15:56:27.659Z,2.05
2022-10-15T15:59:13.865Z,2.10
2022-10-15T16:02:00.377Z,1.80
2022-10-15T16:04:47.076Z,1.67
2022-10-15T16:07:34.111Z,1.67
2022-10-15T16:10:22.275Z,1.73
2022-10-15T16:13:08.859Z,1.80
2022-10-15T16:15:55.330Z,2.05
2022-10-15T16:18:41.898Z,1.80
2022-10-15T16:21:28.622Z,2.30
2022-10-15T16:24:15.309Z,2.20
2022-10-15T16:27:03.268Z,2.10
2022-10-15T16:29:49.675Z,2.15
2022-10-15T16:32:35.790Z,3.17
2022-10-15T16:35:22.192Z,2.65
2022-10-15T16:38:09.422Z,2.60
2022-10-15T16:40:55.904Z,2.63
2022-10-15T16:43:44.136Z,2.58
2022-10-15T16:46:30.778Z,2.90
2022-10-15T16:49:17.425Z,2.70
2022-10-15T16:52:03.599Z,2.55
2022-10-15T16:54:50.149Z,1.98
2022-10-15T16:57:37.059Z,2.70
2022-10-15T17:00:24.661Z,2.20
2022-10-15T17:03:11.169Z,2.45
2022-10-15T17:05:58.609Z,1.95
2022-10-15T17:08:48.281Z,2.47
2022-10-15T17:11:37.360Z,1.90
2022-10-15T17:14:23.601Z,2.15
2022-10-15T17:17:11.625Z,2.10
2022-10-15T17:19:58.110Z,2.22
2022-10-15T17:22:44.277Z,2.38
2022-10-15T17:25:30.953Z,2.20
2022-10-15T17:28:17.276Z,2.33
2022-10-15T17:31:05.294Z,2.55
2022-10-15T17:33:56.609Z,2.10
2022-10-15T17:36:47.077Z,2.45
2022-10-15T17:39:33.598Z,2.30
2022-10-15T17:42:21.667Z,2.60
2022-10-15T17:45:08.701Z,2.30
2022-10-15T17:47:55.033Z,2.78
2022-10-15T17:50:45.330Z,2.47
2022-10-15T17:53:31.899Z,3.00
2022-10-15T17:56:21.316Z,3.22
2022-10-15T17:59:09.306Z,2.17
2022-10-15T18:01:59.292Z,2.78
2022-10-15T18:04:47.474Z,2.67
2022-10-15T18:07:35.238Z,2.38
2022-10-15T18:10:21.474Z,2.22
2022-10-15T18:13:07.822Z,2.33
2022-10-15T18:15:56.696Z,2.58
2022-10-15T18:18:43.225Z,2.33
2022-10-15T18:21:29.885Z,3.03
2022-10-15T18:24:19.902Z,2.53
2022-10-15T18:27:06.424Z,2.35
2022-10-15T18:29:52.874Z,2.67
2022-10-15T18:32:39.244Z,2.63
2022-10-15T18:35:25.410Z,2.42
2022-10-15T18:38:11.673Z,2.58
2022-10-15T18:40:59.306Z,2.20
2022-10-15T18:43:50.903Z,2.45
2022-10-15T18:46:38.551Z,2.25
2022-10-15T18:49:25.139Z,2.90
2022-10-15T18:52:34.971Z,2.22
2022-10-15T18:55:17.999Z,2.17
2022-10-15T18:58:05.750Z,2.00
2022-10-15T19:00:52.385Z,2.20
2022-10-15T19:03:38.807Z,2.08
2022-10-15T19:06:27.829Z,2.45
2022-10-15T19:09:15.573Z,2.53
2022-10-15T19:12:02.221Z,2.75
2022-10-15T19:14:50.157Z,2.85
2022-10-15T19:17:36.609Z,2.92
2022-10-15T19:20:23.890Z,2.53
2022-10-15T19:23:10.357Z,2.50
2022-10-15T19:25:57.650Z,2.90
2022-10-15T19:28:44.464Z,2.55
2022-10-15T19:31:34.176Z,2.70
2022-10-15T19:34:22.604Z,2.60
2022-10-15T19:37:08.849Z,2.67
2022-10-15T19:39:55.424Z,2.50
2022-10-15T19:42:41.738Z,2.67
2022-10-15T19:45:28.254Z,2.65
2022-10-15T19:48:17.599Z,3.00
2022-10-15T19:51:05.587Z,2.60
2022-10-15T19:53:52.629Z,2.60
2022-10-15T19:56:39.243Z,2.63
2022-10-15T19:59:25.482Z,3.10
2022-10-15T20:02:13.346Z,2.88
2022-10-15T20:05:01.289Z,3.33
2022-10-15T20:07:47.866Z,2.97
2022-10-15T20:10:34.238Z,3.28
2022-10-15T20:13:22.485Z,3.33
2022-10-15T20:16:11.073Z,3.20
2022-10-15T20:18:57.317Z,3.78
2022-10-15T20:21:45.265Z,3.03
2022-10-15T20:24:31.746Z,3.33
2022-10-15T20:27:18.117Z,3.95
2022-10-15T20:30:05.505Z,7.47
2022-10-15T20:32:51.952Z,8.55
2022-10-15T20:35:39.319Z,4.00
2022-10-15T20:38:27.255Z,3.97
2022-10-15T20:41:15.101Z,4.07
2022-10-15T20:44:01.585Z,4.22
2022-10-15T20:46:53.903Z,4.60
2022-10-15T20:49:45.338Z,3.50
2022-10-15T20:52:32.348Z,3.55
2022-10-15T20:55:20.574Z,3.58
2022-10-15T20:58:07.697Z,3.30
2022-10-15T21:00:54.342Z,3.03
2022-10-15T21:03:40.735Z,3.15
2022-10-15T21:06:26.974Z,3.35
2022-10-15T21:09:13.691Z,3.42
2022-10-15T21:12:05.718Z,2.42
2022-10-15T21:14:52.474Z,2.83
2022-10-15T21:17:38.750Z,2.45
2022-10-15T21:20:25.968Z,2.95
2022-10-15T21:23:13.713Z,2.70
2022-10-15T21:26:05.344Z,2.65
2022-10-15T21:28:56.419Z,2.80
2022-10-15T21:31:43.287Z,3.65
2022-10-15T21:34:29.870Z,2.08
2022-10-15T21:37:18.709Z,2.22
2022-10-15T21:40:07.435Z,2.30
2022-10-15T21:42:53.975Z,2.40
2022-10-15T21:45:41.743Z,2.42
2022-10-15T21:48:28.561Z,2.70
2022-10-15T21:51:16.855Z,2.85
2022-10-15T21:54:05.266Z,2.80
2022-10-15T21:56:51.776Z,2.42
2022-10-15T21:59:38.408Z,2.78
2022-10-15T22:02:26.012Z,2.42
2022-10-15T22:05:12.465Z,2.65
2022-10-15T22:07:58.762Z,2.22
2022-10-15T22:10:45.015Z,2.30
2022-10-15T22:13:31.249Z,2.25
2022-10-15T22:16:18.813Z,1.98
2022-10-15T22:19:08.496Z,2.05
2022-10-15T22:21:54.745Z,2.05
2022-10-15T22:24:41.349Z,1.77
2022-10-15T22:27:27.909Z,2.05
2022-10-15T22:30:14.138Z,1.80
2022-10-15T22:33:00.702Z,2.17
2022-10-15T22:35:48.386Z,2.13
2022-10-15T22:38:34.729Z,1.90
2022-10-15T22:41:21.322Z,2.10
2022-10-15T22:44:08.056Z,2.10
2022-10-15T22:46:54.302Z,2.28
2022-10-15T22:49:40.964Z,2.63
2022-10-15T22:52:28.738Z,2.50
2022-10-15T22:55:15.370Z,2.72
2022-10-15T22:58:02.033Z,2.38
2022-10-15T23:00:48.651Z,2.03
2022-10-15T23:03:34.951Z,2.20
2022-10-15T23:06:22.145Z,1.98
2022-10-15T23:09:12.883Z,1.63
2022-10-15T23:11:59.298Z,1.55
2022-10-15T23:14:45.452Z,1.85
2022-10-15T23:17:32.609Z,1.73
2022-10-15T23:20:18.782Z,1.73
2022-10-15T23:23:05.361Z,1.65
2022-10-15T23:25:52.893Z,1.42
2022-10-15T23:28:39.786Z,1.45
2022-10-15T23:31:27.994Z,1.58
2022-10-15T23:34:16.393Z,1.52
2022-10-15T23:37:02.888Z,1.42
2022-10-15T23:39:49.416Z,1.60
2022-10-15T23:42:36.941Z,1.50
2022-10-15T23:45:23.471Z,1.70
2022-10-15T23:48:09.628Z,1.52
2022-10-15T23:51:00.742Z,1.45
2022-10-15T23:53:50.414Z,1.65
2022-10-15T23:56:37.032Z,1.83
2022-10-15T23:59:24.857Z,1.30
